createdAt,value
2017-03-27T00:00:10.307Z,9.26
2017-03-27T00:00:50.874Z,9.23
2017-03-27T00:01:31.445Z,9.22
2017-03-27T00:02:12.009Z,9.26
2017-03-27T00:02:52.575Z,9.26
2017-03-27T00:03:33.151Z,9.19
2017-03-27T00:04:13.715Z,9.21
2017-03-27T00:04:54.299Z,9.25
2017-03-27T00:05:34.869Z,9.23
2017-03-27T00:06:15.443Z,9.22
2017-03-27T00:06:56.036Z,9.22
2017-03-27T00:07:36.601Z,9.22
2017-03-27T00:08:17.176Z,9.22
2017-03-27T00:10:29.973Z,9.26
2017-03-27T00:11:10.540Z,9.19
2017-03-27T00:11:51.137Z,9.13
2017-03-27T00:12:31.730Z,9.08
2017-03-27T00:13:12.311Z,9.08
2017-03-27T00:13:52.905Z,9.11
2017-03-27T00:14:33.525Z,9.08
2017-03-27T00:15:14.107Z,9.11
2017-03-27T00:15:54.693Z,9.11
2017-03-27T00:16:35.263Z,9.11
2017-03-27T00:17:15.839Z,9.13
2017-03-27T00:17:56.411Z,9.11
2017-03-27T00:18:36.984Z,9.14
2017-03-27T00:19:17.548Z,9.14
2017-03-27T00:19:58.152Z,9.1
2017-03-27T00:20:38.760Z,9.22
2017-03-27T00:21:19.349Z,9.23
2017-03-27T00:21:59.912Z,9.13
2017-03-27T00:22:40.480Z,9.14
2017-03-27T00:23:21.051Z,9.13
2017-03-27T00:24:01.626Z,9.1
2017-03-27T00:24:42.231Z,9
2017-03-27T00:25:22.811Z,9.08
2017-03-27T00:26:03.388Z,8.99
2017-03-27T00:26:43.977Z,8.95
2017-03-27T00:27:24.567Z,8.97
2017-03-27T00:28:05.116Z,8.95
2017-03-27T00:28:45.688Z,8.92
2017-03-27T00:29:26.257Z,8.92
2017-03-27T00:30:06.832Z,8.97
2017-03-27T00:30:47.423Z,8.88
2017-03-27T00:31:27.990Z,8.95
2017-03-27T00:32:08.567Z,8.88
2017-03-27T00:32:49.156Z,8.92
2017-03-27T00:33:29.766Z,8.94
2017-03-27T00:34:10.355Z,8.87
2017-03-27T00:34:50.932Z,8.91
2017-03-27T00:35:31.507Z,8.94
2017-03-27T00:36:12.104Z,8.91
2017-03-27T00:36:52.658Z,8.84
2017-03-27T00:37:33.254Z,8.91
2017-03-27T00:38:13.815Z,8.94
2017-03-27T00:38:54.403Z,8.89
2017-03-27T00:39:34.964Z,8.82
2017-03-27T00:40:15.539Z,8.89
2017-03-27T00:40:56.150Z,8.89
2017-03-27T00:41:36.723Z,8.89
2017-03-27T00:42:17.302Z,8.94
2017-03-27T00:42:57.887Z,8.94
2017-03-27T00:43:38.468Z,8.91
2017-03-27T00:44:19.041Z,8.88
2017-03-27T00:44:59.613Z,8.92
2017-03-27T00:45:40.188Z,8.87
2017-03-27T00:46:20.842Z,8.87
2017-03-27T00:47:01.410Z,8.92
2017-03-27T00:47:42.012Z,8.89
2017-03-27T00:48:22.586Z,8.91
2017-03-27T00:49:03.159Z,8.91
2017-03-27T00:49:43.755Z,8.89
2017-03-27T00:50:24.325Z,8.88
2017-03-27T00:51:04.895Z,8.87
2017-03-27T00:51:45.474Z,8.74
2017-03-27T00:52:26.046Z,8.78
2017-03-27T00:53:06.629Z,8.84
2017-03-27T00:53:47.220Z,8.82
2017-03-27T00:54:27.787Z,8.79
2017-03-27T00:55:08.372Z,8.78
2017-03-27T00:55:48.954Z,8.74
2017-03-27T00:56:29.534Z,8.82
2017-03-27T00:57:10.107Z,8.79
2017-03-27T00:57:50.695Z,8.76
2017-03-27T00:58:31.263Z,8.74
2017-03-27T00:59:11.856Z,8.74
2017-03-27T00:59:52.447Z,8.7
2017-03-27T01:00:33.014Z,8.78
2017-03-27T01:01:13.619Z,8.69
2017-03-27T01:01:54.171Z,8.73
2017-03-27T01:02:34.750Z,8.78
2017-03-27T01:03:15.337Z,8.76
2017-03-27T01:03:55.947Z,8.71
2017-03-27T01:04:36.518Z,8.64
2017-03-27T01:05:17.103Z,8.7
2017-03-27T01:05:57.688Z,8.66
2017-03-27T01:06:38.261Z,8.71
2017-03-27T01:07:18.827Z,8.66
2017-03-27T01:07:59.417Z,8.64
2017-03-27T01:08:39.983Z,8.64
2017-03-27T01:09:20.561Z,8.64
2017-03-27T01:10:01.149Z,8.74
2017-03-27T01:10:41.714Z,8.74
2017-03-27T01:11:22.287Z,8.66
2017-03-27T01:12:02.852Z,8.67
2017-03-27T01:12:43.422Z,8.69
2017-03-27T01:13:23.984Z,8.7
2017-03-27T01:14:04.568Z,8.61
2017-03-27T01:14:45.196Z,8.64
2017-03-27T01:15:25.778Z,8.67
2017-03-27T01:16:06.350Z,8.61
2017-03-27T01:16:46.922Z,8.6
2017-03-27T01:17:27.480Z,8.6
2017-03-27T01:18:08.096Z,8.61
2017-03-27T01:18:48.660Z,8.61
2017-03-27T01:19:29.226Z,8.58
2017-03-27T01:20:09.807Z,8.58
2017-03-27T01:20:50.430Z,8.56
2017-03-27T01:21:31.080Z,8.63
2017-03-27T01:22:11.647Z,8.61
2017-03-27T01:22:52.203Z,8.61
2017-03-27T01:23:32.801Z,8.61
2017-03-27T01:24:13.355Z,8.58
2017-03-27T01:24:53.953Z,8.66
2017-03-27T01:25:34.564Z,8.63
2017-03-27T01:26:15.124Z,8.6
2017-03-27T01:26:55.705Z,8.52
2017-03-27T01:27:36.319Z,8.64
2017-03-27T01:28:16.895Z,8.53
2017-03-27T01:28:57.481Z,8.51
2017-03-27T01:29:38.065Z,8.51
2017-03-27T01:30:18.643Z,8.49
2017-03-27T01:30:59.228Z,8.51
2017-03-27T01:31:39.800Z,8.55
2017-03-27T01:32:20.368Z,8.52
2017-03-27T01:33:00.987Z,8.53
2017-03-27T01:33:41.558Z,8.52
2017-03-27T01:34:22.155Z,8.53
2017-03-27T01:35:02.720Z,8.51
2017-03-27T01:35:43.295Z,8.52
2017-03-27T01:36:23.907Z,8.53
2017-03-27T01:37:04.498Z,8.38
2017-03-27T01:37:59.776Z,8.36
2017-03-27T01:39:47.245Z,8.38
2017-03-27T01:40:27.851Z,8.48
2017-03-27T01:41:08.396Z,8.46
2017-03-27T01:41:48.969Z,8.41
2017-03-27T01:42:29.582Z,8.48
2017-03-27T01:43:10.179Z,8.46
2017-03-27T01:43:50.770Z,8.46
2017-03-27T01:44:31.340Z,8.44
2017-03-27T01:45:11.915Z,8.49
2017-03-27T01:45:52.503Z,8.42
2017-03-27T01:46:33.129Z,8.36
2017-03-27T01:47:13.831Z,8.33
2017-03-27T01:47:54.493Z,8.38
2017-03-27T01:48:35.051Z,8.36
2017-03-27T01:49:15.640Z,8.37
2017-03-27T01:49:56.236Z,8.41
2017-03-27T01:50:36.813Z,8.3
2017-03-27T01:51:17.387Z,8.36
2017-03-27T01:51:57.982Z,8.37
2017-03-27T01:52:38.564Z,8.34
2017-03-27T01:53:19.144Z,8.27
2017-03-27T01:53:59.729Z,8.36
2017-03-27T01:54:40.313Z,8.38
2017-03-27T01:55:20.894Z,8.34
2017-03-27T01:56:01.485Z,8.31
2017-03-27T01:56:42.072Z,8.37
2017-03-27T01:57:22.734Z,8.28
2017-03-27T01:58:03.300Z,8.3
2017-03-27T01:58:43.883Z,8.27
2017-03-27T01:59:24.530Z,8.31
2017-03-27T02:00:05.105Z,8.3
2017-03-27T02:00:45.682Z,8.24
2017-03-27T02:01:26.248Z,8.23
2017-03-27T02:02:06.820Z,8.24
2017-03-27T02:02:47.391Z,8.3
2017-03-27T02:03:27.989Z,8.27
2017-03-27T02:04:08.564Z,8.31
2017-03-27T02:04:49.154Z,8.34
2017-03-27T02:05:29.713Z,8.31
2017-03-27T02:06:10.289Z,8.27
2017-03-27T02:06:50.876Z,8.27
2017-03-27T02:07:31.463Z,8.2
2017-03-27T02:08:12.047Z,8.19
2017-03-27T02:08:52.617Z,8.26
2017-03-27T02:09:33.260Z,8.18
2017-03-27T02:10:13.835Z,8.23
2017-03-27T02:10:54.410Z,8.13
2017-03-27T02:11:34.978Z,8.2
2017-03-27T02:12:15.581Z,8.12
2017-03-27T02:12:56.151Z,8.13
2017-03-27T02:13:36.710Z,8.12
2017-03-27T02:14:17.288Z,8.18
2017-03-27T02:14:57.857Z,8.18
2017-03-27T02:15:38.434Z,8.23
2017-03-27T02:16:19.000Z,8.19
2017-03-27T02:16:59.576Z,8.16
2017-03-27T02:17:40.153Z,8.2
2017-03-27T02:18:20.739Z,8.19
2017-03-27T02:19:01.306Z,8.13
2017-03-27T02:19:41.861Z,8.16
2017-03-27T02:20:22.429Z,8.15
2017-03-27T02:21:03.014Z,8.15
2017-03-27T02:21:43.593Z,8.13
2017-03-27T02:22:24.204Z,8.18
2017-03-27T02:23:04.794Z,8.15
2017-03-27T02:23:45.383Z,8.09
2017-03-27T02:24:25.975Z,8.13
2017-03-27T02:25:06.549Z,8.13
2017-03-27T02:25:47.131Z,8.15
2017-03-27T02:26:27.713Z,8.16
2017-03-27T02:27:08.309Z,8.12
2017-03-27T02:27:48.910Z,8.13
2017-03-27T02:28:29.499Z,8.13
2017-03-27T02:30:16.968Z,8.18
2017-03-27T02:30:57.538Z,8.01
2017-03-27T02:31:38.133Z,8.03
2017-03-27T02:32:18.713Z,8.03
2017-03-27T02:32:59.284Z,8.09
2017-03-27T02:33:39.848Z,8.06
2017-03-27T02:34:20.456Z,8.03
2017-03-27T02:35:01.048Z,8.05
2017-03-27T02:35:41.608Z,8.01
2017-03-27T02:36:22.203Z,8.05
2017-03-27T02:37:02.771Z,8.06
2017-03-27T02:37:43.357Z,7.98
2017-03-27T02:38:23.913Z,8.09
2017-03-27T02:39:04.488Z,8.03
2017-03-27T02:39:45.080Z,8.01
2017-03-27T02:40:25.662Z,8
2017-03-27T02:41:06.223Z,8.05
2017-03-27T02:41:46.815Z,8.03
2017-03-27T02:42:27.407Z,8.03
2017-03-27T02:43:07.999Z,8.05
2017-03-27T02:43:48.593Z,7.98
2017-03-27T02:44:29.182Z,8.01
2017-03-27T02:45:09.763Z,8
2017-03-27T02:45:50.347Z,8.01
2017-03-27T02:46:30.919Z,8.05
2017-03-27T02:47:11.507Z,7.91
2017-03-27T02:47:52.111Z,7.95
2017-03-27T02:48:32.691Z,7.97
2017-03-27T02:49:13.259Z,8.01
2017-03-27T02:49:53.842Z,8
2017-03-27T02:50:34.433Z,7.97
2017-03-27T02:51:15.022Z,7.9
2017-03-27T02:51:55.615Z,7.98
2017-03-27T02:52:36.195Z,7.88
2017-03-27T02:53:16.764Z,7.83
2017-03-27T02:53:57.333Z,7.9
2017-03-27T02:54:37.927Z,7.83
2017-03-27T02:55:18.515Z,7.88
2017-03-27T02:55:59.133Z,7.88
2017-03-27T02:56:39.701Z,7.87
2017-03-27T02:57:20.279Z,7.77
2017-03-27T02:58:00.843Z,7.77
2017-03-27T02:58:41.412Z,7.8
2017-03-27T02:59:22.000Z,7.83
2017-03-27T03:00:02.627Z,7.83
2017-03-27T03:00:43.201Z,7.79
2017-03-27T03:01:23.781Z,7.79
2017-03-27T03:02:04.346Z,7.87
2017-03-27T03:02:44.928Z,7.77
2017-03-27T03:03:25.497Z,7.82
2017-03-27T03:04:06.081Z,7.79
2017-03-27T03:04:46.679Z,7.77
2017-03-27T03:05:27.270Z,7.83
2017-03-27T03:06:07.827Z,7.8
2017-03-27T03:06:48.421Z,7.82
2017-03-27T03:07:28.992Z,7.88
2017-03-27T03:08:09.562Z,7.83
2017-03-27T03:08:50.138Z,7.85
2017-03-27T03:09:30.736Z,7.82
2017-03-27T03:10:11.320Z,7.77
2017-03-27T03:10:51.895Z,7.79
2017-03-27T03:11:32.514Z,7.82
2017-03-27T03:12:13.088Z,7.79
2017-03-27T03:12:53.666Z,7.8
2017-03-27T03:13:34.262Z,7.8
2017-03-27T03:14:14.859Z,7.8
2017-03-27T03:14:55.436Z,7.76
2017-03-27T03:15:36.065Z,7.73
2017-03-27T03:16:16.634Z,7.7
2017-03-27T03:16:57.218Z,7.7
2017-03-27T03:17:37.800Z,7.73
2017-03-27T03:18:18.397Z,7.7
2017-03-27T03:18:58.981Z,7.73
2017-03-27T03:19:39.553Z,7.75
2017-03-27T03:20:20.159Z,7.73
2017-03-27T03:21:00.753Z,7.77
2017-03-27T03:21:41.305Z,7.77
2017-03-27T03:22:21.891Z,7.73
2017-03-27T03:23:02.463Z,7.75
2017-03-27T03:23:43.044Z,7.75
2017-03-27T03:24:23.621Z,7.73
2017-03-27T03:25:04.210Z,7.75
2017-03-27T03:25:44.816Z,7.77
2017-03-27T03:26:25.441Z,7.75
2017-03-27T03:27:06.034Z,7.75
2017-03-27T03:27:46.659Z,7.73
2017-03-27T03:28:27.240Z,7.75
2017-03-27T03:29:07.830Z,7.72
2017-03-27T03:29:48.408Z,7.73
2017-03-27T03:30:28.993Z,7.7
2017-03-27T03:31:09.583Z,7.72
2017-03-27T03:31:50.130Z,7.77
2017-03-27T03:32:30.708Z,7.77
2017-03-27T03:33:11.268Z,7.76
2017-03-27T03:33:51.846Z,7.75
2017-03-27T03:34:32.454Z,7.75
2017-03-27T03:35:13.028Z,7.7
2017-03-27T03:35:53.612Z,7.72
2017-03-27T03:36:34.185Z,7.7
2017-03-27T03:37:14.758Z,7.66
2017-03-27T03:37:55.337Z,7.63
2017-03-27T03:38:35.931Z,7.63
2017-03-27T03:39:16.494Z,7.56
2017-03-27T03:39:57.086Z,7.63
2017-03-27T03:40:37.713Z,7.63
2017-03-27T03:41:18.311Z,7.57
2017-03-27T03:41:58.852Z,7.56
2017-03-27T03:42:39.438Z,7.57
2017-03-27T03:43:20.021Z,7.56
2017-03-27T03:44:00.607Z,7.66
2017-03-27T03:44:41.193Z,7.58
2017-03-27T03:45:21.768Z,7.51
2017-03-27T03:46:02.358Z,7.58
2017-03-27T03:46:42.909Z,7.48
2017-03-27T03:47:23.488Z,7.51
2017-03-27T03:48:04.076Z,7.54
2017-03-27T03:48:44.656Z,7.53
2017-03-27T03:49:25.242Z,7.51
2017-03-27T03:50:05.826Z,7.56
2017-03-27T03:50:46.408Z,7.53
2017-03-27T03:51:26.983Z,7.56
2017-03-27T03:52:07.549Z,7.56
2017-03-27T03:52:48.170Z,7.58
2017-03-27T03:53:28.786Z,7.45
2017-03-27T03:54:09.366Z,7.48
2017-03-27T03:54:49.940Z,7.54
2017-03-27T03:55:30.510Z,7.56
2017-03-27T03:56:11.095Z,7.57
2017-03-27T03:56:51.675Z,7.53
2017-03-27T03:57:32.267Z,7.53
2017-03-27T03:58:12.847Z,7.5
2017-03-27T03:58:53.435Z,7.53
2017-03-27T03:59:34.023Z,7.56
2017-03-27T04:00:14.599Z,7.51
2017-03-27T04:00:55.159Z,7.54
2017-03-27T04:01:35.738Z,7.48
2017-03-27T04:02:16.354Z,7.47
2017-03-27T04:02:56.928Z,7.56
2017-03-27T04:03:37.498Z,7.48
2017-03-27T04:04:18.099Z,7.54
2017-03-27T04:04:58.683Z,7.51
2017-03-27T04:05:39.278Z,7.51
2017-03-27T04:06:19.855Z,7.54
2017-03-27T04:07:00.476Z,7.57
2017-03-27T04:07:41.050Z,7.43
2017-03-27T04:08:21.638Z,7.58
2017-03-27T04:09:02.225Z,7.43
2017-03-27T04:09:42.791Z,7.56
2017-03-27T04:10:23.383Z,7.4
2017-03-27T04:11:03.985Z,7.47
2017-03-27T04:11:44.629Z,7.43
2017-03-27T04:12:25.245Z,7.5
2017-03-27T04:13:05.853Z,7.48
2017-03-27T04:13:46.484Z,7.4
2017-03-27T04:14:27.076Z,7.54
2017-03-27T04:15:07.657Z,7.48
2017-03-27T04:15:48.261Z,7.39
2017-03-27T04:16:28.828Z,7.42
2017-03-27T04:17:09.403Z,7.48
2017-03-27T04:17:50.009Z,7.42
2017-03-27T04:18:30.571Z,7.45
2017-03-27T04:19:11.199Z,7.48
2017-03-27T04:19:51.779Z,7.4
2017-03-27T04:20:32.364Z,7.43
2017-03-27T04:21:12.978Z,7.42
2017-03-27T04:21:53.564Z,7.39
2017-03-27T04:22:34.135Z,7.39
2017-03-27T04:23:14.710Z,7.42
2017-03-27T04:23:55.281Z,7.4
2017-03-27T04:24:35.885Z,7.47
2017-03-27T04:25:16.463Z,7.4
2017-03-27T04:25:57.032Z,7.4
2017-03-27T04:26:37.605Z,7.36
2017-03-27T04:27:18.192Z,7.38
2017-03-27T04:27:58.778Z,7.36
2017-03-27T04:28:39.351Z,7.35
2017-03-27T04:29:19.944Z,7.33
2017-03-27T04:30:00.552Z,7.36
2017-03-27T04:30:41.148Z,7.36
2017-03-27T04:31:21.728Z,7.32
2017-03-27T04:32:02.306Z,7.35
2017-03-27T04:32:42.889Z,7.33
2017-03-27T04:33:24.233Z,7.32
2017-03-27T04:34:04.821Z,7.35
2017-03-27T04:34:45.391Z,7.29
2017-03-27T04:35:25.956Z,7.31
2017-03-27T04:36:06.535Z,7.31
2017-03-27T04:36:47.109Z,7.32
2017-03-27T04:37:27.669Z,7.29
2017-03-27T04:38:08.285Z,7.29
2017-03-27T04:38:48.856Z,7.31
2017-03-27T04:39:29.418Z,7.25
2017-03-27T04:40:10.015Z,7.25
2017-03-27T04:40:50.589Z,7.25
2017-03-27T04:41:31.152Z,7.31
2017-03-27T04:42:11.724Z,7.33
2017-03-27T04:42:52.299Z,7.25
2017-03-27T04:43:32.881Z,7.31
2017-03-27T04:44:13.482Z,7.31
2017-03-27T04:44:54.083Z,7.29
2017-03-27T04:45:34.649Z,7.25
2017-03-27T04:46:15.242Z,7.25
2017-03-27T04:46:55.823Z,7.31
2017-03-27T04:47:36.425Z,7.28
2017-03-27T04:48:16.993Z,7.29
2017-03-27T04:48:57.587Z,7.39
2017-03-27T04:49:38.165Z,7.48
2017-03-27T04:50:18.746Z,7.51
2017-03-27T04:50:59.354Z,7.57
2017-03-27T04:51:40.766Z,7.47
2017-03-27T04:53:18.120Z,7.54
2017-03-27T04:53:58.787Z,7.45
2017-03-27T04:54:39.376Z,7.51
2017-03-27T04:55:19.964Z,7.39
2017-03-27T04:56:00.552Z,7.47
2017-03-27T04:56:41.189Z,7.42
2017-03-27T04:57:21.819Z,7.39
2017-03-27T04:58:02.416Z,7.32
2017-03-27T04:58:42.989Z,7.36
2017-03-27T04:59:23.607Z,7.33
2017-03-27T05:00:04.230Z,7.32
2017-03-27T05:00:44.827Z,7.32
2017-03-27T05:01:25.399Z,7.29
2017-03-27T05:02:05.990Z,7.23
2017-03-27T05:02:46.555Z,7.33
2017-03-27T05:03:27.144Z,7.15
2017-03-27T05:04:07.709Z,7.28
2017-03-27T05:04:48.291Z,7.2
2017-03-27T05:05:28.839Z,7.29
2017-03-27T05:06:09.406Z,7.25
2017-03-27T05:06:49.975Z,7.31
2017-03-27T05:07:30.552Z,7.29
2017-03-27T05:08:11.114Z,7.17
2017-03-27T05:08:51.696Z,7.29
2017-03-27T05:09:32.302Z,7.33
2017-03-27T05:10:12.896Z,7.35
2017-03-27T05:10:53.520Z,7.18
2017-03-27T05:11:34.086Z,7.18
2017-03-27T05:12:14.674Z,7.18
2017-03-27T05:12:55.316Z,7.31
2017-03-27T05:13:35.912Z,7.18
2017-03-27T05:14:16.489Z,7.23
2017-03-27T05:14:57.061Z,7.29
2017-03-27T05:15:37.644Z,7.17
2017-03-27T05:16:18.241Z,7.32
2017-03-27T05:16:58.831Z,7.17
2017-03-27T05:17:39.422Z,7.21
2017-03-27T05:18:19.999Z,7.33
2017-03-27T05:19:00.595Z,7.31
2017-03-27T05:19:41.171Z,7.24
2017-03-27T05:20:21.746Z,7.18
2017-03-27T05:21:02.315Z,7.15
2017-03-27T05:21:42.917Z,7.23
2017-03-27T05:22:23.496Z,7.2
2017-03-27T05:23:04.069Z,7.2
2017-03-27T05:23:44.658Z,7.2
2017-03-27T05:24:25.259Z,7.18
2017-03-27T05:25:05.840Z,7.23
2017-03-27T05:25:46.457Z,7.18
2017-03-27T05:26:27.058Z,7.18
2017-03-27T05:27:07.640Z,7.18
2017-03-27T05:27:48.239Z,7.25
2017-03-27T05:28:28.843Z,7.21
2017-03-27T05:29:09.421Z,7.2
2017-03-27T05:29:52.618Z,7.31
2017-03-27T05:30:33.191Z,7.25
2017-03-27T05:31:13.764Z,7.28
2017-03-27T05:31:54.334Z,7.31
2017-03-27T05:32:34.959Z,7.29
2017-03-27T05:34:52.578Z,7.33
2017-03-27T05:35:33.145Z,7.36
2017-03-27T05:36:13.717Z,7.31
2017-03-27T05:36:54.308Z,7.33
2017-03-27T05:37:34.877Z,7.33
2017-03-27T05:38:15.457Z,7.33
2017-03-27T05:38:56.014Z,7.36
2017-03-27T05:39:36.598Z,7.35
2017-03-27T05:40:17.187Z,7.32
2017-03-27T05:40:57.774Z,7.32
2017-03-27T05:41:38.399Z,7.42
2017-03-27T05:42:19.003Z,7.36
2017-03-27T05:42:59.569Z,7.47
2017-03-27T05:43:40.152Z,7.31
2017-03-27T05:44:20.725Z,7.42
2017-03-27T05:45:01.332Z,7.36
2017-03-27T05:45:41.947Z,7.43
2017-03-27T05:46:22.535Z,7.43
2017-03-27T05:47:03.116Z,7.63
2017-03-27T05:47:43.703Z,7.9
2017-03-27T05:48:24.274Z,8.03
2017-03-27T05:49:04.854Z,8.28
2017-03-27T05:49:45.458Z,8.42
2017-03-27T05:50:26.057Z,8.64
2017-03-27T05:51:06.626Z,8.88
2017-03-27T05:51:47.209Z,8.92
2017-03-27T05:52:27.796Z,9.21
2017-03-27T05:53:08.381Z,9.41
2017-03-27T05:53:48.980Z,9.55
2017-03-27T05:54:29.536Z,9.64
2017-03-27T05:55:10.116Z,9.74
2017-03-27T05:55:50.689Z,9.82
2017-03-27T05:56:31.287Z,10.05
2017-03-27T05:57:11.873Z,10.16
2017-03-27T05:57:54.336Z,10.2
2017-03-27T05:58:34.911Z,10.3
2017-03-27T05:59:15.548Z,10.35
2017-03-27T05:59:56.111Z,10.37
2017-03-27T06:00:36.742Z,10.49
2017-03-27T06:01:17.293Z,10.51
2017-03-27T06:01:57.905Z,10.59
2017-03-27T06:02:38.507Z,10.6
2017-03-27T06:03:19.085Z,10.67
2017-03-27T06:03:59.677Z,10.67
2017-03-27T06:04:40.233Z,10.63
2017-03-27T06:05:20.800Z,10.46
2017-03-27T06:06:01.520Z,10.44
2017-03-27T06:06:42.161Z,10.26
2017-03-27T06:07:22.745Z,10.17
2017-03-27T06:08:03.332Z,10.07
2017-03-27T06:08:43.931Z,9.95
2017-03-27T06:09:24.575Z,9.83
2017-03-27T06:10:08.117Z,9.69
2017-03-27T06:10:48.691Z,9.66
2017-03-27T06:11:29.265Z,9.48
2017-03-27T06:12:09.825Z,9.5
2017-03-27T06:12:50.419Z,9.37
2017-03-27T06:13:30.996Z,9.36
2017-03-27T06:14:11.565Z,9.23
2017-03-27T06:14:52.139Z,9.22
2017-03-27T06:15:32.836Z,9.14
2017-03-27T06:16:13.444Z,9.1
2017-03-27T06:16:54.011Z,9.08
2017-03-27T06:17:34.599Z,9.1
2017-03-27T06:18:15.179Z,8.94
2017-03-27T06:18:55.756Z,8.89
2017-03-27T06:19:36.360Z,8.92
2017-03-27T06:20:16.920Z,8.91
2017-03-27T06:20:57.599Z,8.94
2017-03-27T06:21:38.188Z,8.88
2017-03-27T06:22:18.801Z,8.89
2017-03-27T06:22:59.398Z,8.89
2017-03-27T06:23:39.968Z,8.87
2017-03-27T06:24:20.557Z,8.81
2017-03-27T06:25:01.131Z,8.76
2017-03-27T06:25:41.715Z,8.85
2017-03-27T06:26:22.317Z,8.87
2017-03-27T06:27:02.899Z,8.81
2017-03-27T06:27:43.489Z,8.73
2017-03-27T06:28:24.095Z,8.82
2017-03-27T06:29:04.683Z,8.74
2017-03-27T06:29:45.284Z,8.74
2017-03-27T06:30:25.851Z,8.76
2017-03-27T06:31:06.437Z,8.79
2017-03-27T06:31:47.023Z,8.76
2017-03-27T06:32:27.611Z,8.79
2017-03-27T06:33:08.179Z,8.79
2017-03-27T06:33:48.759Z,8.76
2017-03-27T06:34:29.345Z,8.79
2017-03-27T06:35:09.936Z,8.76
2017-03-27T06:35:50.521Z,8.82
2017-03-27T06:36:31.159Z,8.78
2017-03-27T06:37:11.759Z,8.74
2017-03-27T06:37:52.331Z,8.74
2017-03-27T06:38:32.915Z,8.81
2017-03-27T06:39:13.492Z,8.74
2017-03-27T06:39:54.081Z,8.87
2017-03-27T06:40:34.683Z,8.87
2017-03-27T06:41:15.282Z,8.78
2017-03-27T06:41:55.940Z,8.82
2017-03-27T06:42:36.522Z,8.88
2017-03-27T06:43:17.117Z,8.87
2017-03-27T06:43:57.728Z,8.74
2017-03-27T06:44:38.308Z,8.85
2017-03-27T06:45:18.866Z,8.91
2017-03-27T06:45:59.441Z,8.91
2017-03-27T06:46:40.021Z,8.88
2017-03-27T06:47:20.605Z,8.87
2017-03-27T06:48:01.187Z,8.91
2017-03-27T06:48:41.783Z,8.99
2017-03-27T06:49:22.382Z,8.95
2017-03-27T06:50:03.017Z,9
2017-03-27T06:50:43.571Z,9.11
2017-03-27T06:51:24.198Z,9.18
2017-03-27T06:52:04.779Z,9.36
2017-03-27T06:52:45.360Z,9.5
2017-03-27T06:53:25.937Z,9.66
2017-03-27T06:54:06.510Z,9.77
2017-03-27T06:54:47.090Z,9.92
2017-03-27T06:55:27.690Z,10.09
2017-03-27T06:56:08.265Z,10.25
2017-03-27T06:56:48.844Z,10.33
2017-03-27T06:57:29.419Z,10.44
2017-03-27T06:58:10.005Z,10.63
2017-03-27T06:58:50.587Z,10.76
2017-03-27T06:59:31.224Z,10.84
2017-03-27T07:00:11.823Z,10.93
2017-03-27T07:00:52.414Z,10.94
2017-03-27T07:01:33.008Z,11.04
2017-03-27T07:02:13.595Z,11.15
2017-03-27T07:02:54.165Z,11.23
2017-03-27T07:03:34.751Z,11.32
2017-03-27T07:04:15.341Z,11.37
2017-03-27T07:04:55.974Z,11.52
2017-03-27T07:05:36.555Z,11.57
2017-03-27T07:06:17.138Z,11.7
2017-03-27T07:06:57.725Z,11.72
2017-03-27T07:07:38.301Z,11.81
2017-03-27T07:08:18.882Z,11.88
2017-03-27T07:08:59.479Z,11.97
2017-03-27T07:09:40.060Z,12.17
2017-03-27T07:10:20.668Z,12.31
2017-03-27T07:11:01.274Z,12.37
2017-03-27T07:11:41.876Z,12.53
2017-03-27T07:12:22.500Z,12.54
2017-03-27T07:13:03.085Z,12.78
2017-03-27T07:13:43.683Z,12.83
2017-03-27T07:14:24.274Z,13
2017-03-27T07:15:04.846Z,13.15
2017-03-27T07:15:45.442Z,13.18
2017-03-27T07:16:26.032Z,13.33
2017-03-27T07:17:06.711Z,13.37
2017-03-27T07:17:47.309Z,13.44
2017-03-27T07:18:27.874Z,13.52
2017-03-27T07:19:08.443Z,13.53
2017-03-27T07:19:49.036Z,13.65
2017-03-27T07:20:29.613Z,13.78
2017-03-27T07:21:10.228Z,13.86
2017-03-27T07:21:50.798Z,13.85
2017-03-27T07:22:31.382Z,13.92
2017-03-27T07:23:11.981Z,13.92
2017-03-27T07:23:52.584Z,14.07
2017-03-27T07:24:33.187Z,14.11
2017-03-27T07:25:13.765Z,14.28
2017-03-27T07:25:54.368Z,14.37
2017-03-27T07:26:35.000Z,14.51
2017-03-27T07:27:15.566Z,14.72
2017-03-27T07:27:56.155Z,14.81
2017-03-27T07:28:36.750Z,14.88
2017-03-27T07:29:17.337Z,15.03
2017-03-27T07:29:57.944Z,15.18
2017-03-27T07:30:38.519Z,15.29
2017-03-27T07:31:19.134Z,15.36
2017-03-27T07:31:59.724Z,15.51
2017-03-27T07:32:40.317Z,15.54
2017-03-27T07:33:20.926Z,15.57
2017-03-27T07:34:01.536Z,15.61
2017-03-27T07:34:42.142Z,15.73
2017-03-27T07:35:22.794Z,15.77
2017-03-27T07:36:03.404Z,15.97
2017-03-27T07:36:43.987Z,15.98
2017-03-27T07:37:24.661Z,16.09
2017-03-27T07:38:05.285Z,16.23
2017-03-27T07:38:45.883Z,16.21
2017-03-27T07:39:26.489Z,16.33
2017-03-27T07:40:07.114Z,16.51
2017-03-27T07:40:47.774Z,16.56
2017-03-27T07:41:28.346Z,16.69
2017-03-27T07:42:08.966Z,16.71
2017-03-27T07:42:49.535Z,16.81
2017-03-27T07:43:30.115Z,16.91
2017-03-27T07:44:10.713Z,17.06
2017-03-27T07:44:51.317Z,17.06
2017-03-27T07:45:31.897Z,17.14
2017-03-27T07:46:12.564Z,17.23
2017-03-27T07:46:53.181Z,17.2
2017-03-27T07:47:33.751Z,17.26
2017-03-27T07:48:14.361Z,17.27
2017-03-27T07:48:55.000Z,17.31
2017-03-27T07:49:35.588Z,17.31
2017-03-27T07:50:16.186Z,17.39
2017-03-27T07:50:56.807Z,17.42
2017-03-27T07:51:37.416Z,17.34
2017-03-27T07:52:18.010Z,17.51
2017-03-27T07:52:58.624Z,17.44
2017-03-27T07:53:39.233Z,17.44
2017-03-27T07:54:19.865Z,17.63
2017-03-27T07:55:00.480Z,17.63
2017-03-27T07:55:42.641Z,17.83
2017-03-27T07:56:23.241Z,17.9
2017-03-27T07:57:03.809Z,17.95
2017-03-27T07:57:44.422Z,18.04
2017-03-27T07:58:25.016Z,18.19
2017-03-27T07:59:05.604Z,18.25
2017-03-27T07:59:46.212Z,18.31
2017-03-27T08:00:26.803Z,18.37
2017-03-27T08:01:07.439Z,18.41
2017-03-27T08:01:48.031Z,18.45
2017-03-27T08:02:28.608Z,18.47
2017-03-27T08:03:09.234Z,18.5
2017-03-27T08:03:49.841Z,18.52
2017-03-27T08:04:30.416Z,18.58
2017-03-27T08:05:10.996Z,18.53
2017-03-27T08:05:51.596Z,18.6
2017-03-27T08:06:32.194Z,18.65
2017-03-27T08:07:12.787Z,18.65
2017-03-27T08:07:53.397Z,18.77
2017-03-27T08:08:34.078Z,18.77
2017-03-27T08:09:14.641Z,18.75
2017-03-27T08:09:55.229Z,18.89
2017-03-27T08:10:35.847Z,18.9
2017-03-27T08:11:16.447Z,18.99
2017-03-27T08:11:57.100Z,18.99
2017-03-27T08:12:37.726Z,19.11
2017-03-27T08:13:18.327Z,19.15
2017-03-27T08:13:58.928Z,19.21
2017-03-27T08:14:39.579Z,19.31
2017-03-27T08:15:20.166Z,19.33
2017-03-27T08:16:00.767Z,19.39
2017-03-27T08:16:41.409Z,19.31
2017-03-27T08:17:22.001Z,19.34
2017-03-27T08:18:02.595Z,19.33
2017-03-27T08:18:43.179Z,19.29
2017-03-27T08:19:23.777Z,19.31
2017-03-27T08:20:04.390Z,19.22
2017-03-27T08:20:45.042Z,19.14
2017-03-27T08:21:28.172Z,19
2017-03-27T08:22:08.777Z,18.89
2017-03-27T08:22:49.361Z,18.86
2017-03-27T08:23:29.976Z,18.75
2017-03-27T08:24:10.570Z,18.71
2017-03-27T08:24:51.164Z,18.55
2017-03-27T08:25:31.761Z,18.53
2017-03-27T08:26:12.381Z,18.4
2017-03-27T08:26:52.984Z,18.4
2017-03-27T08:27:33.618Z,18.26
2017-03-27T08:28:14.228Z,18.2
2017-03-27T08:28:54.850Z,18.15
2017-03-27T08:29:35.476Z,18.11
2017-03-27T08:30:16.105Z,18.03
2017-03-27T08:30:56.687Z,18
2017-03-27T08:31:37.289Z,17.94
2017-03-27T08:32:17.963Z,17.86
2017-03-27T08:32:58.646Z,17.71
2017-03-27T08:33:39.232Z,17.57
2017-03-27T08:34:19.832Z,17.46
2017-03-27T08:35:00.404Z,17.44
2017-03-27T08:35:40.996Z,17.44
2017-03-27T08:36:21.634Z,17.45
2017-03-27T08:37:02.252Z,17.48
2017-03-27T08:37:42.859Z,17.48
2017-03-27T08:38:23.502Z,17.63
2017-03-27T08:39:04.133Z,17.54
2017-03-27T08:39:44.715Z,17.74
2017-03-27T08:40:25.287Z,17.79
2017-03-27T08:41:05.888Z,17.7
2017-03-27T08:41:46.480Z,17.87
2017-03-27T08:42:27.065Z,17.85
2017-03-27T08:43:07.676Z,17.85
2017-03-27T08:43:48.257Z,17.87
2017-03-27T08:44:28.835Z,17.82
2017-03-27T08:45:09.489Z,17.87
2017-03-27T08:45:50.077Z,17.94
2017-03-27T08:46:30.669Z,17.83
2017-03-27T08:47:11.351Z,17.83
2017-03-27T08:47:51.944Z,17.78
2017-03-27T08:48:32.552Z,17.76
2017-03-27T08:49:13.154Z,17.82
2017-03-27T08:49:53.776Z,17.86
2017-03-27T08:50:34.361Z,17.74
2017-03-27T08:51:14.965Z,17.76
2017-03-27T08:51:55.550Z,17.64
2017-03-27T08:52:36.164Z,17.46
2017-03-27T08:53:16.791Z,17.46
2017-03-27T08:53:57.383Z,17.27
2017-03-27T08:54:38.014Z,17.19
2017-03-27T08:55:18.611Z,17.26
2017-03-27T08:55:59.200Z,17.06
2017-03-27T08:56:39.816Z,16.97
2017-03-27T08:57:20.409Z,16.91
2017-03-27T08:58:00.977Z,16.9
2017-03-27T08:58:41.605Z,16.91
2017-03-27T08:59:22.255Z,17.06
2017-03-27T09:00:02.839Z,16.97
2017-03-27T09:00:43.437Z,17.05
2017-03-27T09:01:24.046Z,17.06
2017-03-27T09:02:04.635Z,17.04
2017-03-27T09:02:45.204Z,17.01
2017-03-27T09:03:25.799Z,16.99
2017-03-27T09:04:06.424Z,16.86